sensor_id;sensor_type;location;lat;lon;timestamp;pressure;altitude;pressure_sealevel;temperature;humidity
21276;BME280;36472;52.170;20.884;2023-02-01T00:01:43;99149.63;;;3.68;100.00
21276;BME280;36472;52.170;20.884;2023-02-01T00:04:12;99160.75;;;3.70;100.00
21276;BME280;36472;52.170;20.884;2023-02-01T00:06:41;99152.63;;;3.77;100.00
21276;BME280;36472;52.170;20.884;2023-02-01T00:09:10;99139.13;;;3.70;100.00
21276;BME280;36472;52.170;20.884;2023-02-01T00:11:40;99142.47;;;3.72;100.00
21276;BME280;36472;52.170;20.884;2023-02-01T00:14:10;99147.59;;;3.73;100.00
21276;BME280;36472;52.170;20.884;2023-02-01T00:16:40;99155.31;;;3.75;100.00
21276;BME280;36472;52.170;20.884;2023-02-01T00:19:13;99156.44;;;3.85;100.00
21276;BME280;36472;52.170;20.884;2023-02-01T00:21:42;99161.25;;;3.77;100.00
21276;BME280;36472;52.170;20.884;2023-02-01T00:24:13;99163.41;;;3.85;100.00
21276;BME280;36472;52.170;20.884;2023-02-01T00:26:44;99160.75;;;3.86;100.00
21276;BME280;36472;52.170;20.884;2023-02-01T00:29:18;99163.50;;;3.83;100.00
21276;BME280;36472;52.170;20.884;2023-02-01T00:31:49;99173.44;;;3.91;100.00
21276;BME280;36472;52.170;20.884;2023-02-01T00:34:20;99169.13;;;3.91;100.00
21276;BME280;36472;52.170;20.884;2023-02-01T00:36:49;99155.34;;;3.89;100.00
21276;BME280;36472;52.170;20.884;2023-02-01T00:39:18;99160.19;;;3.96;100.00
21276;BME280;36472;52.170;20.884;2023-02-01T00:41:47;99167.00;;;3.98;100.00
21276;BME280;36472;52.170;20.884;2023-02-01T00:44:17;99169.78;;;3.95;100.00
21276;BME280;36472;52.170;20.884;2023-02-01T00:46:46;99169.78;;;3.95;100.00
21276;BME280;36472;52.170;20.884;2023-02-01T00:49:15;99173.84;;;3.99;100.00
21276;BME280;36472;52.170;20.884;2023-02-01T00:51:44;99174.47;;;3.88;100.00
21276;BME280;36472;52.170;20.884;2023-02-01T00:54:13;99172.13;;;4.00;100.00
21276;BME280;36472;52.170;20.884;2023-02-01T00:56:42;99178.31;;;3.97;100.00
21276;BME280;36472;52.170;20.884;2023-02-01T00:59:12;99177.09;;;4.03;100.00
21276;BME280;36472;52.170;20.884;2023-02-01T01:01:42;99175.63;;;3.99;100.00
21276;BME280;36472;52.170;20.884;2023-02-01T01:04:11;99176.81;;;3.93;100.00
21276;BME280;36472;52.170;20.884;2023-02-01T01:06:40;99181.47;;;4.02;99.59
21276;BME280;36472;52.170;20.884;2023-02-01T01:09:10;99170.94;;;3.89;98.75
21276;BME280;36472;52.170;20.884;2023-02-01T01:11:39;99174.31;;;3.91;97.79
21276;BME280;36472;52.170;20.884;2023-02-01T01:14:09;99169.78;;;3.95;96.72
21276;BME280;36472;52.170;20.884;2023-02-01T01:16:38;99169.13;;;3.91;96.68
21276;BME280;36472;52.170;20.884;2023-02-01T01:19:08;99179.22;;;3.96;96.47
21276;BME280;36472;52.170;20.884;2023-02-01T01:21:38;99180.75;;;4.00;96.62
21276;BME280;36472;52.170;20.884;2023-02-01T01:24:07;99193.41;;;3.90;97.15
21276;BME280;36472;52.170;20.884;2023-02-01T01:26:36;99204.31;;;3.97;97.12
21276;BME280;36472;52.170;20.884;2023-02-01T01:29:05;99198.84;;;4.02;97.26
21276;BME280;36472;52.170;20.884;2023-02-01T01:31:34;99192.94;;;4.14;96.42
21276;BME280;36472;52.170;20.884;2023-02-01T01:34:03;99194.06;;;4.10;95.98
21276;BME280;36472;52.170;20.884;2023-02-01T01:36:34;99199.44;;;4.07;96.05
21276;BME280;36472;52.170;20.884;2023-02-01T01:39:03;99197.56;;;4.09;95.40
21276;BME280;36472;52.170;20.884;2023-02-01T01:41:32;99200.59;;;4.01;95.34
21276;BME280;36472;52.170;20.884;2023-02-01T01:44:58;99200.25;;;4.07;94.29
21276;BME280;36472;52.170;20.884;2023-02-01T01:47:35;99201.75;;;4.11;94.20
21276;BME280;36472;52.170;20.884;2023-02-01T01:50:11;99197.25;;;3.99;93.10
21276;BME280;36472;52.170;20.884;2023-02-01T01:52:46;99207.81;;;3.96;93.15
21276;BME280;36472;52.170;20.884;2023-02-01T01:55:19;99219.66;;;4.02;92.55
21276;BME280;36472;52.170;20.884;2023-02-01T01:57:55;99230.63;;;4.07;91.85
21276;BME280;36472;52.170;20.884;2023-02-01T02:00:26;99228.44;;;3.99;91.77
21276;BME280;36472;52.170;20.884;2023-02-01T02:03:02;99234.38;;;4.01;91.51
21276;BME280;36472;52.170;20.884;2023-02-01T02:05:32;99230.13;;;4.00;90.70
21276;BME280;36472;52.170;20.884;2023-02-01T02:08:03;99230.31;;;3.97;90.62
21276;BME280;36472;52.170;20.884;2023-02-01T02:10:33;99224.94;;;4.00;90.55
21276;BME280;36472;52.170;20.884;2023-02-01T02:13:19;99225.91;;;4.14;89.39
21276;BME280;36472;52.170;20.884;2023-02-01T02:16:04;99228.84;;;4.07;89.04
21276;BME280;36472;52.170;20.884;2023-02-01T02:18:45;99227.09;;;4.08;88.36
21276;BME280;36472;52.170;20.884;2023-02-01T02:21:32;99226.91;;;4.11;87.56
21276;BME280;36472;52.170;20.884;2023-02-01T02:27:36;99249.31;;;4.14;86.97
21276;BME280;36472;52.170;20.884;2023-02-01T02:30:59;99245.69;;;4.16;86.61
21276;BME280;36472;52.170;20.884;2023-02-01T02:33:52;99242.19;;;4.17;87.01
21276;BME280;36472;52.170;20.884;2023-02-01T02:36:37;99244.03;;;4.15;86.78
21276;BME280;36472;52.170;20.884;2023-02-01T02:39:19;99247.88;;;4.08;87.05
21276;BME280;36472;52.170;20.884;2023-02-01T02:42:00;99247.53;;;4.14;87.46
21276;BME280;36472;52.170;20.884;2023-02-01T02:44:57;99240.41;;;4.18;87.83
21276;BME280;36472;52.170;20.884;2023-02-01T02:47:54;99249.03;;;4.18;88.20
21276;BME280;36472;52.170;20.884;2023-02-01T02:50:32;99244.03;;;4.15;88.47
21276;BME280;36472;52.170;20.884;2023-02-01T02:53:28;99244.38;;;4.09;88.83
21276;BME280;36472;52.170;20.884;2023-02-01T02:56:21;99239.56;;;4.17;88.41
21276;BME280;36472;52.170;20.884;2023-02-01T02:59:12;99247.47;;;4.16;88.56
21276;BME280;36472;52.170;20.884;2023-02-01T03:01:59;99247.38;;;4.17;88.93
21276;BME280;36472;52.170;20.884;2023-02-01T03:04:46;99241.88;;;4.22;88.36
21276;BME280;36472;52.170;20.884;2023-02-01T03:07:55;99247.88;;;4.24;88.38
21276;BME280;36472;52.170;20.884;2023-02-01T03:10:35;99253.56;;;4.15;88.94
21276;BME280;36472;52.170;20.884;2023-02-01T03:13:20;99244.16;;;4.28;88.33
21276;BME280;36472;52.170;20.884;2023-02-01T03:15:57;99255.00;;;4.20;89.41
21276;BME280;36472;52.170;20.884;2023-02-01T03:18:35;99256.16;;;4.30;88.70
21276;BME280;36472;52.170;20.884;2023-02-01T03:21:12;99259.63;;;4.15;89.70
21276;BME280;36472;52.170;20.884;2023-02-01T03:23:48;99262.94;;;4.33;88.99
21276;BME280;36472;52.170;20.884;2023-02-01T03:26:20;99259.13;;;4.08;90.37
21276;BME280;36472;52.170;20.884;2023-02-01T03:28:56;99256.22;;;3.99;91.64
21276;BME280;36472;52.170;20.884;2023-02-01T03:31:29;99263.34;;;3.95;92.96
21276;BME280;36472;52.170;20.884;2023-02-01T03:33:58;99263.94;;;3.84;93.82
21276;BME280;36472;52.170;20.884;2023-02-01T03:36:35;99259.06;;;3.94;93.54
21276;BME280;36472;52.170;20.884;2023-02-01T03:39:15;99261.75;;;3.92;93.86
21276;BME280;36472;52.170;20.884;2023-02-01T03:41:52;99262.16;;;4.01;93.57
21276;BME280;36472;52.170;20.884;2023-02-01T03:44:26;99267.44;;;3.99;93.40
21276;BME280;36472;52.170;20.884;2023-02-01T03:47:03;99254.19;;;4.04;92.40
21276;BME280;36472;52.170;20.884;2023-02-01T03:49:40;99256.72;;;4.05;92.18
21276;BME280;36472;52.170;20.884;2023-02-01T03:52:16;99267.50;;;4.14;91.80
21276;BME280;36472;52.170;20.884;2023-02-01T03:54:50;99261.03;;;4.21;91.77
21276;BME280;36472;52.170;20.884;2023-02-01T03:57:26;99265.84;;;4.12;91.60
21276;BME280;36472;52.170;20.884;2023-02-01T04:00:05;99266.06;;;4.24;90.58
21276;BME280;36472;52.170;20.884;2023-02-01T04:02:40;99264.38;;;4.23;90.58
21276;BME280;36472;52.170;20.884;2023-02-01T04:05:09;99264.97;;;4.28;90.04
21276;BME280;36472;52.170;20.884;2023-02-01T04:07:44;99270.50;;;4.22;89.59
21276;BME280;36472;52.170;20.884;2023-02-01T04:10:16;99274.44;;;4.29;89.67
21276;BME280;36472;52.170;20.884;2023-02-01T04:12:46;99268.78;;;4.37;88.26
21276;BME280;36472;52.170;20.884;2023-02-01T04:15:15;99273.50;;;4.30;88.87
21276;BME280;36472;52.170;20.884;2023-02-01T04:17:45;99273.66;;;4.43;87.81
21276;BME280;36472;52.170;20.884;2023-02-01T04:20:14;99268.63;;;4.40;87.38
21276;BME280;36472;52.170;20.884;2023-02-01T04:22:43;99268.44;;;4.43;87.85
21276;BME280;36472;52.170;20.884;2023-02-01T04:25:14;99280.59;;;4.42;87.04
21276;BME280;36472;52.170;20.884;2023-02-01T04:27:46;99280.59;;;4.42;87.03
21276;BME280;36472;52.170;20.884;2023-02-01T04:30:16;99288.59;;;4.39;86.72
21276;BME280;36472;52.170;20.884;2023-02-01T04:32:46;99291.84;;;4.43;86.81
21276;BME280;36472;52.170;20.884;2023-02-01T04:35:15;99283.97;;;4.44;86.40
21276;BME280;36472;52.170;20.884;2023-02-01T04:37:45;99296.03;;;4.45;86.56
21276;BME280;36472;52.170;20.884;2023-02-01T04:40:16;99289.91;;;4.46;86.22
21276;BME280;36472;52.170;20.884;2023-02-01T04:42:44;99294.09;;;4.49;85.74
21276;BME280;36472;52.170;20.884;2023-02-01T04:45:14;99307.59;;;4.56;85.65
21276;BME280;36472;52.170;20.884;2023-02-01T04:47:42;99298.72;;;4.44;86.16
21276;BME280;36472;52.170;20.884;2023-02-01T04:50:12;99298.47;;;4.48;86.06
21276;BME280;36472;52.170;20.884;2023-02-01T04:52:40;99295.13;;;4.46;85.22
21276;BME280;36472;52.170;20.884;2023-02-01T04:55:10;99301.81;;;4.50;84.47
21276;BME280;36472;52.170;20.884;2023-02-01T04:57:40;99306.59;;;4.58;84.67
21276;BME280;36472;52.170;20.884;2023-02-01T05:00:11;99301.94;;;4.63;84.26
21276;BME280;36472;52.170;20.884;2023-02-01T05:02:40;99305.94;;;4.55;84.55
21276;BME280;36472;52.170;20.884;2023-02-01T05:05:09;99306.44;;;4.45;84.75
21276;BME280;36472;52.170;20.884;2023-02-01T05:07:38;99301.81;;;4.50;84.59
21276;BME280;36472;52.170;20.884;2023-02-01T05:10:09;99311.31;;;4.52;84.78
21276;BME280;36472;52.170;20.884;2023-02-01T05:12:39;99311.22;;;4.53;84.44
21276;BME280;36472;52.170;20.884;2023-02-01T05:15:26;99317.00;;;4.58;84.20
21276;BME280;36472;52.170;20.884;2023-02-01T05:17:54;99306.09;;;4.52;84.10
21276;BME280;36472;52.170;20.884;2023-02-01T05:20:24;99305.63;;;4.59;83.99
21276;BME280;36472;52.170;20.884;2023-02-01T05:22:53;99308.16;;;4.61;84.22
21276;BME280;36472;52.170;20.884;2023-02-01T05:25:22;99294.97;;;4.64;84.29
21276;BME280;36472;52.170;20.884;2023-02-01T05:27:53;99297.66;;;4.62;84.23
21276;BME280;36472;52.170;20.884;2023-02-01T05:30:22;99296.84;;;4.62;83.60
21276;BME280;36472;52.170;20.884;2023-02-01T05:32:52;99292.63;;;4.59;84.26
21276;BME280;36472;52.170;20.884;2023-02-01T05:35:21;99290.59;;;4.64;83.54
21276;BME280;36472;52.170;20.884;2023-02-01T05:37:51;99303.81;;;4.61;83.32
21276;BME280;36472;52.170;20.884;2023-02-01T05:40:20;99293.66;;;4.57;83.94
21276;BME280;36472;52.170;20.884;2023-02-01T05:42:49;99281.47;;;4.57;83.98
21276;BME280;36472;52.170;20.884;2023-02-01T05:45:20;99280.91;;;4.52;84.23
21276;BME280;36472;52.170;20.884;2023-02-01T05:47:51;99281.06;;;4.49;84.00
21276;BME280;36472;52.170;20.884;2023-02-01T05:50:21;99300.56;;;4.42;84.30
21276;BME280;36472;52.170;20.884;2023-02-01T05:52:56;99298.81;;;4.42;84.00
21276;BME280;36472;52.170;20.884;2023-02-01T05:55:25;99297.16;;;4.41;84.37
21276;BME280;36472;52.170;20.884;2023-02-01T05:57:54;99294.63;;;4.40;84.68
21276;BME280;36472;52.170;20.884;2023-02-01T06:00:25;99306.34;;;4.47;84.70
21276;BME280;36472;52.170;20.884;2023-02-01T06:02:54;99304.78;;;4.44;84.76
21276;BME280;36472;52.170;20.884;2023-02-01T06:05:24;99302.66;;;4.51;84.42
21276;BME280;36472;52.170;20.884;2023-02-01T06:07:53;99301.97;;;4.47;84.46
21276;BME280;36472;52.170;20.884;2023-02-01T06:10:22;99290.09;;;4.43;85.28
21276;BME280;36472;52.170;20.884;2023-02-01T06:12:51;99296.97;;;4.44;85.10
21276;BME280;36472;52.170;20.884;2023-02-01T06:15:20;99295.47;;;4.40;84.87
21276;BME280;36472;52.170;20.884;2023-02-01T06:17:51;99294.94;;;4.49;84.86
21276;BME280;36472;52.170;20.884;2023-02-01T06:20:20;99293.50;;;4.44;84.49
21276;BME280;36472;52.170;20.884;2023-02-01T06:22:50;99281.06;;;4.49;84.27
21276;BME280;36472;52.170;20.884;2023-02-01T06:25:20;99298.47;;;4.48;83.51
21276;BME280;36472;52.170;20.884;2023-02-01T06:27:49;99285.06;;;4.40;84.49
21276;BME280;36472;52.170;20.884;2023-02-01T06:30:18;99292.50;;;4.46;84.40
21276;BME280;36472;52.170;20.884;2023-02-01T06:32:52;99292.78;;;4.42;84.68
21276;BME280;36472;52.170;20.884;2023-02-01T06:35:22;99279.13;;;4.53;83.54
21276;BME280;36472;52.170;20.884;2023-02-01T06:37:51;99285.03;;;4.56;83.46
21276;BME280;36472;52.170;20.884;2023-02-01T06:40:20;99284.34;;;4.53;83.70
21276;BME280;36472;52.170;20.884;2023-02-01T06:42:50;99287.72;;;4.55;83.72
21276;BME280;36472;52.170;20.884;2023-02-01T06:45:19;99287.25;;;4.62;83.41
21276;BME280;36472;52.170;20.884;2023-02-01T06:47:47;99274.31;;;4.61;83.02
21276;BME280;36472;52.170;20.884;2023-02-01T06:50:18;99273.31;;;4.63;82.93
21276;BME280;36472;52.170;20.884;2023-02-01T06:52:48;99272.41;;;4.79;81.84
21276;BME280;36472;52.170;20.884;2023-02-01T06:55:17;99268.59;;;4.70;82.17
21276;BME280;36472;52.170;20.884;2023-02-01T06:57:46;99262.09;;;4.77;82.26
21276;BME280;36472;52.170;20.884;2023-02-01T07:00:17;99276.41;;;4.70;82.23
21276;BME280;36472;52.170;20.884;2023-02-01T07:02:45;99278.84;;;4.73;82.38
21276;BME280;36472;52.170;20.884;2023-02-01T07:05:15;99277.72;;;4.77;82.01
21276;BME280;36472;52.170;20.884;2023-02-01T07:07:45;99276.59;;;4.81;82.09
21276;BME280;36472;52.170;20.884;2023-02-01T07:10:15;99265.81;;;4.73;82.18
21276;BME280;36472;52.170;20.884;2023-02-01T07:12:44;99282.63;;;4.67;82.40
21276;BME280;36472;52.170;20.884;2023-02-01T07:15:13;99280.56;;;4.73;82.23
21276;BME280;36472;52.170;20.884;2023-02-01T07:17:42;99278.06;;;4.71;82.23
21276;BME280;36472;52.170;20.884;2023-02-01T07:20:12;99277.97;;;4.73;81.23
21276;BME280;36472;52.170;20.884;2023-02-01T07:22:41;99271.38;;;4.67;81.35
21276;BME280;36472;52.170;20.884;2023-02-01T07:25:11;99277.88;;;4.74;80.84
21276;BME280;36472;52.170;20.884;2023-02-01T07:27:40;99270.47;;;4.68;81.22
21276;BME280;36472;52.170;20.884;2023-02-01T07:30:11;99281.06;;;4.79;81.14
21276;BME280;36472;52.170;20.884;2023-02-01T07:32:40;99285.19;;;4.83;80.43
21276;BME280;36472;52.170;20.884;2023-02-01T07:35:10;99285.63;;;4.90;80.72
21276;BME280;36472;52.170;20.884;2023-02-01T07:37:38;99286.94;;;4.97;79.58
21276;BME280;36472;52.170;20.884;2023-02-01T07:40:11;99276.81;;;4.93;79.72
21276;BME280;36472;52.170;20.884;2023-02-01T07:42:40;99295.78;;;4.95;79.57
21276;BME280;36472;52.170;20.884;2023-02-01T07:45:10;99289.56;;;4.97;79.40
21276;BME280;36472;52.170;20.884;2023-02-01T07:47:48;99294.63;;;4.84;80.43
21276;BME280;36472;52.170;20.884;2023-02-01T07:50:17;99278.00;;;4.87;80.47
21276;BME280;36472;52.170;20.884;2023-02-01T07:52:46;99292.44;;;4.93;80.30
21276;BME280;36472;52.170;20.884;2023-02-01T07:55:16;99288.97;;;4.78;81.20
21276;BME280;36472;52.170;20.884;2023-02-01T07:57:46;99281.19;;;4.92;80.37
21276;BME280;36472;52.170;20.884;2023-02-01T08:00:16;99279.06;;;4.99;80.39
21276;BME280;36472;52.170;20.884;2023-02-01T08:03:04;99275.97;;;5.06;80.00
21276;BME280;36472;52.170;20.884;2023-02-01T08:05:33;99284.13;;;5.00;79.75
21276;BME280;36472;52.170;20.884;2023-02-01T08:08:05;99278.50;;;4.94;79.53
21276;BME280;36472;52.170;20.884;2023-02-01T08:10:36;99280.63;;;5.01;80.17
21276;BME280;36472;52.170;20.884;2023-02-01T08:13:05;99261.00;;;4.96;80.13
21276;BME280;36472;52.170;20.884;2023-02-01T08:15:34;99275.69;;;4.97;80.13
21276;BME280;36472;52.170;20.884;2023-02-01T08:18:03;99277.81;;;4.90;80.94
21276;BME280;36472;52.170;20.884;2023-02-01T08:20:33;99276.91;;;4.91;81.83
21276;BME280;36472;52.170;20.884;2023-02-01T08:23:07;99270.28;;;4.85;81.90
21276;BME280;36472;52.170;20.884;2023-02-01T08:25:38;99273.28;;;4.94;81.46
21276;BME280;36472;52.170;20.884;2023-02-01T08:28:08;99263.03;;;5.05;80.57
21276;BME280;36472;52.170;20.884;2023-02-01T08:30:37;99270.19;;;5.01;80.84
21276;BME280;36472;52.170;20.884;2023-02-01T08:33:06;99266.78;;;5.01;81.46
21276;BME280;36472;52.170;20.884;2023-02-01T08:35:37;99268.16;;;5.21;80.77
21276;BME280;36472;52.170;20.884;2023-02-01T08:38:10;99269.75;;;5.23;80.42
21276;BME280;36472;52.170;20.884;2023-02-01T08:40:41;99279.41;;;5.07;81.59
21276;BME280;36472;52.170;20.884;2023-02-01T08:43:10;99273.19;;;5.10;81.47
21276;BME280;36472;52.170;20.884;2023-02-01T08:45:40;99268.25;;;5.05;82.23
21276;BME280;36472;52.170;20.884;2023-02-01T08:48:09;99274.41;;;5.04;82.00
21276;BME280;36472;52.170;20.884;2023-02-01T08:50:38;99264.06;;;5.02;81.94
21276;BME280;36472;52.170;20.884;2023-02-01T08:53:07;99272.06;;;4.99;81.25
21276;BME280;36472;52.170;20.884;2023-02-01T08:55:36;99275.41;;;5.01;80.57
21276;BME280;36472;52.170;20.884;2023-02-01T08:58:06;99281.75;;;5.12;80.02
21276;BME280;36472;52.170;20.884;2023-02-01T09:00:35;99287.41;;;5.18;78.94
21276;BME280;36472;52.170;20.884;2023-02-01T09:03:04;99295.97;;;5.20;78.49
21276;BME280;36472;52.170;20.884;2023-02-01T09:05:33;99287.97;;;5.23;78.02
21276;BME280;36472;52.170;20.884;2023-02-01T09:08:15;99295.59;;;5.27;77.57
21276;BME280;36472;52.170;20.884;2023-02-01T09:10:46;99288.81;;;5.38;76.29
21276;BME280;36472;52.170;20.884;2023-02-01T09:13:16;99286.00;;;5.27;77.11
21276;BME280;36472;52.170;20.884;2023-02-01T09:15:46;99287.97;;;5.38;76.39
21276;BME280;36472;52.170;20.884;2023-02-01T09:18:14;99290.56;;;5.38;76.60
21276;BME280;36472;52.170;20.884;2023-02-01T09:20:44;99298.38;;;5.38;76.64
21276;BME280;36472;52.170;20.884;2023-02-01T09:23:13;99292.97;;;5.41;76.33
21276;BME280;36472;52.170;20.884;2023-02-01T09:25:42;99287.69;;;5.42;77.10
21276;BME280;36472;52.170;20.884;2023-02-01T09:28:11;99288.41;;;5.44;76.46
21276;BME280;36472;52.170;20.884;2023-02-01T09:30:41;99294.19;;;5.50;75.90
21276;BME280;36472;52.170;20.884;2023-02-01T09:33:10;99292.22;;;5.53;75.21
21276;BME280;36472;52.170;20.884;2023-02-01T09:35:39;99280.31;;;5.49;74.63
21276;BME280;36472;52.170;20.884;2023-02-01T09:38:08;99289.59;;;5.68;74.96
21276;BME280;36472;52.170;20.884;2023-02-01T09:40:47;99270.72;;;5.64;75.16
21276;BME280;36472;52.170;20.884;2023-02-01T09:43:34;99275.16;;;5.76;74.67
21276;BME280;36472;52.170;20.884;2023-02-01T09:46:21;99277.84;;;5.75;74.52
21276;BME280;36472;52.170;20.884;2023-02-01T09:48:55;99275.97;;;5.77;74.49
21276;BME280;36472;52.170;20.884;2023-02-01T09:51:30;99277.47;;;5.81;74.54
21276;BME280;36472;52.170;20.884;2023-02-01T09:54:07;99272.16;;;5.83;74.33
21276;BME280;36472;52.170;20.884;2023-02-01T09:56:46;99265.31;;;6.09;74.36
21276;BME280;36472;52.170;20.884;2023-02-01T09:59:29;99259.91;;;6.90;71.63
21276;BME280;36472;52.170;20.884;2023-02-01T10:02:08;99266.97;;;7.40;68.10
21276;BME280;36472;52.170;20.884;2023-02-01T10:04:39;99257.34;;;7.27;68.14
21276;BME280;36472;52.170;20.884;2023-02-01T10:07:31;99261.56;;;7.04;67.95
21276;BME280;36472;52.170;20.884;2023-02-01T10:10:11;99268.88;;;6.73;68.92
21276;BME280;36472;52.170;20.884;2023-02-01T10:13:22;99266.16;;;6.49;70.63
21276;BME280;36472;52.170;20.884;2023-02-01T10:16:13;99268.13;;;6.46;70.92
21276;BME280;36472;52.170;20.884;2023-02-01T10:19:21;99273.41;;;6.31;71.83
21276;BME280;36472;52.170;20.884;2023-02-01T10:21:58;99274.84;;;6.23;72.08
21276;BME280;36472;52.170;20.884;2023-02-01T10:24:39;99277.97;;;6.15;72.81
21276;BME280;36472;52.170;20.884;2023-02-01T10:27:16;99272.75;;;6.15;73.22
21276;BME280;36472;52.170;20.884;2023-02-01T10:29:54;99266.47;;;6.17;72.84
21276;BME280;36472;52.170;20.884;2023-02-01T10:32:29;99266.47;;;6.17;72.92
21276;BME280;36472;52.170;20.884;2023-02-01T10:35:09;99270.34;;;6.12;73.62
21276;BME280;36472;52.170;20.884;2023-02-01T10:37:43;99276.28;;;6.14;73.99
21276;BME280;36472;52.170;20.884;2023-02-01T10:40:19;99274.41;;;6.16;73.92
21276;BME280;36472;52.170;20.884;2023-02-01T10:42:52;99276.03;;;6.04;73.45
21276;BME280;36472;52.170;20.884;2023-02-01T10:45:26;99276.56;;;6.09;73.74
21276;BME280;36472;52.170;20.884;2023-02-01T10:47:57;99275.75;;;6.09;74.01
21276;BME280;36472;52.170;20.884;2023-02-01T10:50:36;99282.31;;;6.14;73.84
21276;BME280;36472;52.170;20.884;2023-02-01T10:53:16;99279.59;;;6.03;74.48
21276;BME280;36472;52.170;20.884;2023-02-01T10:55:49;99282.00;;;5.92;75.15
21276;BME280;36472;52.170;20.884;2023-02-01T10:58:20;99283.03;;;5.89;75.37
21276;BME280;36472;52.170;20.884;2023-02-01T11:00:58;99271.50;;;5.79;75.99
21276;BME280;36472;52.170;20.884;2023-02-01T11:03:39;99270.84;;;5.90;75.41
21276;BME280;36472;52.170;20.884;2023-02-01T11:06:19;99260.50;;;5.88;75.90
21276;BME280;36472;52.170;20.884;2023-02-01T11:08:52;99254.16;;;5.92;75.73
21276;BME280;36472;52.170;20.884;2023-02-01T11:11:23;99254.44;;;6.02;76.33
21276;BME280;36472;52.170;20.884;2023-02-01T11:13:56;99264.06;;;6.14;76.32
21276;BME280;36472;52.170;20.884;2023-02-01T11:16:34;99266.94;;;6.37;75.74
21276;BME280;36472;52.170;20.884;2023-02-01T11:19:05;99265.28;;;6.36;74.92
21276;BME280;36472;52.170;20.884;2023-02-01T11:21:36;99262.56;;;6.38;75.07
21276;BME280;36472;52.170;20.884;2023-02-01T11:24:18;99261.50;;;6.27;74.82
21276;BME280;36472;52.170;20.884;2023-02-01T11:26:50;99253.47;;;6.30;75.02
21276;BME280;36472;52.170;20.884;2023-02-01T11:29:22;99263.00;;;6.44;74.69
21276;BME280;36472;52.170;20.884;2023-02-01T11:31:59;99258.22;;;6.51;74.55
21276;BME280;36472;52.170;20.884;2023-02-01T11:34:36;99248.50;;;6.53;74.88
21276;BME280;36472;52.170;20.884;2023-02-01T11:37:19;99257.09;;;6.68;74.69
21276;BME280;36472;52.170;20.884;2023-02-01T11:39:57;99237.88;;;6.82;73.37
21276;BME280;36472;52.170;20.884;2023-02-01T11:42:28;99251.56;;;6.85;73.63
21276;BME280;36472;52.170;20.884;2023-02-01T11:45:20;99240.06;;;7.01;73.63
21276;BME280;36472;52.170;20.884;2023-02-01T11:47:54;99240.44;;;7.33;72.05
21276;BME280;36472;52.170;20.884;2023-02-01T11:50:35;99238.97;;;7.66;70.70
21276;BME280;36472;52.170;20.884;2023-02-01T11:53:41;99240.56;;;7.93;68.95
21276;BME280;36472;52.170;20.884;2023-02-01T11:56:25;99228.72;;;8.35;67.38
21276;BME280;36472;52.170;20.884;2023-02-01T11:59:20;99228.34;;;8.29;67.14
21276;BME280;36472;52.170;20.884;2023-02-01T12:02:19;99234.94;;;7.86;68.91
21276;BME280;36472;52.170;20.884;2023-02-01T12:05:10;99230.53;;;7.49;70.53
21276;BME280;36472;52.170;20.884;2023-02-01T12:08:06;99225.56;;;7.34;71.17
21276;BME280;36472;52.170;20.884;2023-02-01T12:10:55;99221.88;;;6.86;73.11
21276;BME280;36472;52.170;20.884;2023-02-01T12:13:44;99211.53;;;6.85;74.15
21276;BME280;36472;52.170;20.884;2023-02-01T12:16:29;99219.34;;;6.85;74.26
21276;BME280;36472;52.170;20.884;2023-02-01T12:22:37;99221.03;;;6.60;77.43
21276;BME280;36472;52.170;20.884;2023-02-01T12:25:46;99219.59;;;6.56;78.59
21276;BME280;36472;52.170;20.884;2023-02-01T12:29:02;99218.59;;;6.31;79.55
21276;BME280;36472;52.170;20.884;2023-02-01T12:31:53;99220.97;;;6.09;81.00
21276;BME280;36472;52.170;20.884;2023-02-01T12:35:00;99229.97;;;6.17;81.59
21276;BME280;36472;52.170;20.884;2023-02-01T12:37:51;99220.88;;;6.23;81.47
21276;BME280;36472;52.170;20.884;2023-02-01T12:40:47;99220.34;;;6.18;81.59
21276;BME280;36472;52.170;20.884;2023-02-01T12:43:24;99219.97;;;6.24;81.27
21276;BME280;36472;52.170;20.884;2023-02-01T12:46:02;99222.38;;;6.27;81.32
21276;BME280;36472;52.170;20.884;2023-02-01T12:48:36;99223.19;;;6.28;80.26
21276;BME280;36472;52.170;20.884;2023-02-01T12:51:16;99224.13;;;6.27;80.04
21276;BME280;36472;52.170;20.884;2023-02-01T12:53:51;99224.78;;;6.30;79.72
21276;BME280;36472;52.170;20.884;2023-02-01T12:56:28;99228.53;;;6.39;79.93
21276;BME280;36472;52.170;20.884;2023-02-01T12:59:04;99226.97;;;6.36;79.71
21276;BME280;36472;52.170;20.884;2023-02-01T13:01:37;99225.59;;;6.44;80.05
21276;BME280;36472;52.170;20.884;2023-02-01T13:04:15;99223.97;;;6.55;79.46
21276;BME280;36472;52.170;20.884;2023-02-01T13:06:53;99227.09;;;6.48;78.60
21276;BME280;36472;52.170;20.884;2023-02-01T13:09:29;99225.25;;;6.63;78.32
21276;BME280;36472;52.170;20.884;2023-02-01T13:12:12;99231.88;;;6.54;78.46
21276;BME280;36472;52.170;20.884;2023-02-01T13:14:47;99216.34;;;6.65;78.58
21276;BME280;36472;52.170;20.884;2023-02-01T13:17:22;99236.06;;;6.69;78.50
21276;BME280;36472;52.170;20.884;2023-02-01T13:19:59;99233.16;;;6.61;77.89
21276;BME280;36472;52.170;20.884;2023-02-01T13:22:36;99242.13;;;6.57;78.20
21276;BME280;36472;52.170;20.884;2023-02-01T13:25:13;99251.34;;;6.63;77.53
21276;BME280;36472;52.170;20.884;2023-02-01T13:27:46;99251.53;;;6.60;77.55
21276;BME280;36472;52.170;20.884;2023-02-01T13:30:21;99247.72;;;6.25;78.96
21276;BME280;36472;52.170;20.884;2023-02-01T13:33:45;99248.38;;;6.29;79.48
21276;BME280;36472;52.170;20.884;2023-02-01T13:36:53;99251.06;;;6.27;80.07
21276;BME280;36472;52.170;20.884;2023-02-01T13:39:48;99246.25;;;6.21;80.43
21276;BME280;36472;52.170;20.884;2023-02-01T13:42:25;99252.06;;;6.12;80.33
21276;BME280;36472;52.170;20.884;2023-02-01T13:45:03;99254.16;;;6.20;80.06
21276;BME280;36472;52.170;20.884;2023-02-01T13:47:38;99249.69;;;6.22;80.03
21276;BME280;36472;52.170;20.884;2023-02-01T13:50:23;99262.44;;;6.26;80.17